Terminal Aerodrome Forecast
Issued by NWS

Home | Current Version | Previous Version | Text Only | Print | Product List | Glossary On
Versions: 1 2 3 4 5 6 7 8 9 10 11 12 13 14 15 16 17 18 19 20 21 22 23 24 25 26 27 28 29 30 31 32 33 34 35 36 37 38 39 40 41 42 43 44 45 46 47 48
569
FTUS44 KHGX 191740
TAFUTS
TAF
KUTS 191740Z 1918/2018 14008KT 6SM HZ OVC011
      TEMPO 1920/1923 14011G19KT P6SM NSW BKN025
     FM200300 14011KT P6SM VCSH BKN008 OVC015
     FM200500 16010KT 6SM -SHRA OVC005
     FM200900 VRB08G15KT 6SM TSRA BR BKN006 OVC010CB
      TEMPO 2013/2017 2SM TSRA BR BKN010CB OVC025=

USA.gov is the U.S. government's official web portal to all federal, state and local government web resources and services.